createdAt,value
2023-12-15T00:02:29.806Z,39.40
2023-12-15T00:05:00.651Z,31.55
2023-12-15T00:07:34.796Z,31.75
2023-12-15T00:10:05.492Z,33.00
2023-12-15T00:12:35.968Z,30.88
2023-12-15T00:15:07.110Z,30.73
2023-12-15T00:17:37.831Z,33.53
2023-12-15T00:20:10.326Z,30.20
2023-12-15T00:22:43.479Z,30.67
2023-12-15T00:25:13.917Z,32.40
2023-12-15T00:27:44.672Z,34.35
2023-12-15T00:30:16.936Z,35.67
2023-12-15T00:32:51.267Z,32.38
2023-12-15T00:35:21.803Z,30.80
2023-12-15T00:37:54.982Z,31.85
2023-12-15T00:40:26.082Z,29.02
2023-12-15T00:42:56.640Z,32.63
2023-12-15T00:45:27.648Z,33.45
2023-12-15T00:47:58.123Z,35.30
2023-12-15T00:50:30.405Z,33.13
2023-12-15T00:53:03.778Z,33.83
2023-12-15T00:55:34.360Z,29.30
2023-12-15T00:58:05.538Z,37.42
2023-12-15T01:00:36.040Z,28.35
2023-12-15T01:03:07.067Z,31.17
2023-12-15T01:05:37.601Z,32.38
2023-12-15T01:08:10.819Z,36.60
2023-12-15T01:10:41.281Z,42.78
2023-12-15T01:13:11.806Z,31.98
2023-12-15T01:15:42.301Z,36.55
2023-12-15T01:18:13.199Z,33.65
2023-12-15T01:20:43.756Z,34.30
2023-12-15T01:23:17.717Z,37.20
2023-12-15T01:25:48.266Z,28.55
2023-12-15T01:28:18.955Z,32.60
2023-12-15T01:30:49.780Z,33.00
2023-12-15T01:33:20.859Z,34.88
2023-12-15T01:35:52.243Z,33.08
2023-12-15T01:38:25.471Z,31.33
2023-12-15T01:40:55.978Z,33.60
2023-12-15T01:43:26.651Z,35.55
2023-12-15T01:46:05.068Z,27.42
2023-12-15T01:48:39.769Z,30.40
2023-12-15T01:51:10.989Z,33.00
2023-12-15T01:53:44.492Z,30.52
2023-12-15T01:56:16.547Z,34.65
2023-12-15T01:58:47.102Z,38.88
2023-12-15T02:01:17.625Z,34.92
2023-12-15T02:03:49.575Z,35.00
2023-12-15T02:06:20.817Z,34.45
2023-12-15T02:08:53.903Z,28.95
2023-12-15T02:11:24.404Z,28.70
2023-12-15T02:13:54.895Z,31.48
2023-12-15T02:16:25.417Z,31.67
2023-12-15T02:18:55.933Z,35.55
2023-12-15T02:21:26.504Z,29.80
2023-12-15T02:23:59.743Z,32.65
2023-12-15T02:26:30.258Z,33.22
2023-12-15T02:29:00.839Z,30.63
2023-12-15T02:31:31.277Z,28.83
2023-12-15T02:34:01.776Z,35.70
2023-12-15T02:36:32.641Z,33.95
2023-12-15T02:39:04.298Z,32.97
2023-12-15T02:41:35.216Z,30.95
2023-12-15T02:44:05.688Z,29.20
2023-12-15T02:46:40.488Z,32.75
2023-12-15T02:49:11.073Z,32.63
2023-12-15T02:51:41.630Z,32.17
2023-12-15T02:54:14.740Z,34.72
2023-12-15T02:56:45.225Z,31.25
2023-12-15T02:59:15.738Z,36.28
2023-12-15T03:01:46.194Z,31.92
2023-12-15T03:04:16.701Z,29.77
2023-12-15T03:06:47.126Z,36.85
2023-12-15T03:09:20.213Z,29.13
2023-12-15T03:11:50.837Z,32.60
2023-12-15T03:14:21.353Z,37.15
2023-12-15T03:16:51.937Z,29.63
2023-12-15T03:19:22.499Z,31.80
2023-12-15T03:21:53.040Z,28.90
2023-12-15T03:24:26.067Z,29.65
2023-12-15T03:26:56.495Z,31.13
2023-12-15T03:29:27.223Z,34.70
2023-12-15T03:31:58.011Z,35.63
2023-12-15T03:34:28.502Z,34.35
2023-12-15T03:36:59.028Z,37.30
2023-12-15T03:39:32.115Z,40.60
2023-12-15T03:42:06.737Z,38.45
2023-12-15T03:44:40.625Z,31.85
2023-12-15T03:47:12.446Z,37.90
2023-12-15T03:49:42.875Z,38.00
2023-12-15T03:52:13.259Z,35.60
2023-12-15T03:54:46.406Z,43.63
2023-12-15T03:57:16.931Z,36.80
2023-12-15T03:59:48.053Z,37.30
2023-12-15T04:02:22.816Z,37.35
2023-12-15T04:04:53.444Z,39.50
2023-12-15T04:07:23.969Z,34.65
2023-12-15T04:09:57.009Z,35.35
2023-12-15T04:12:27.500Z,32.80
2023-12-15T04:14:58.227Z,33.28
2023-12-15T04:17:28.816Z,40.42
2023-12-15T04:19:59.735Z,32.20
2023-12-15T04:22:30.227Z,33.10
2023-12-15T04:25:03.413Z,32.35
2023-12-15T04:27:37.593Z,31.05
2023-12-15T04:30:11.096Z,31.52
2023-12-15T04:33:16.993Z,30.42
2023-12-15T04:35:48.685Z,32.58
2023-12-15T04:38:18.992Z,35.15
2023-12-15T04:40:51.945Z,33.08
2023-12-15T04:43:22.180Z,35.22
2023-12-15T04:45:52.455Z,31.52
2023-12-15T04:48:22.813Z,34.13
2023-12-15T04:50:53.675Z,38.20
2023-12-15T04:53:24.286Z,39.90
2023-12-15T04:55:57.250Z,36.42
2023-12-15T04:58:27.536Z,42.03
2023-12-15T05:00:58.215Z,35.53
2023-12-15T05:03:28.909Z,36.17
2023-12-15T05:05:59.315Z,35.58
2023-12-15T05:08:29.688Z,32.20
2023-12-15T05:11:02.614Z,33.63
2023-12-15T05:13:32.989Z,35.25
2023-12-15T05:16:03.287Z,35.00
2023-12-15T05:18:33.649Z,33.97
2023-12-15T05:21:04.088Z,31.15
2023-12-15T05:23:35.544Z,32.13
2023-12-15T05:26:08.932Z,32.55
2023-12-15T05:28:40.408Z,29.17
2023-12-15T05:31:11.484Z,37.78
2023-12-15T05:33:41.839Z,30.65
2023-12-15T05:36:20.954Z,36.95
2023-12-15T05:38:54.393Z,36.65
2023-12-15T05:41:27.374Z,29.00
2023-12-15T05:43:57.787Z,34.72
2023-12-15T05:46:28.448Z,31.73
2023-12-15T05:48:59.177Z,33.33
2023-12-15T05:51:29.532Z,32.47
2023-12-15T05:53:59.828Z,30.75
2023-12-15T05:56:33.019Z,33.85
2023-12-15T05:59:03.413Z,32.55
2023-12-15T06:01:33.783Z,40.53
2023-12-15T06:04:04.058Z,31.27
2023-12-15T06:06:34.413Z,31.70
2023-12-15T06:09:05.266Z,35.92
2023-12-15T06:11:43.453Z,33.83
2023-12-15T06:14:14.757Z,32.88
2023-12-15T06:16:45.623Z,34.72
2023-12-15T06:19:18.219Z,32.17
2023-12-15T06:21:48.605Z,32.60
2023-12-15T06:24:18.931Z,34.80
2023-12-15T06:26:51.866Z,31.67
2023-12-15T06:29:22.174Z,33.17
2023-12-15T06:31:52.949Z,34.33
2023-12-15T06:34:23.237Z,27.55
2023-12-15T06:36:53.580Z,37.17
2023-12-15T06:39:23.875Z,35.15
2023-12-15T06:41:58.378Z,36.33
2023-12-15T06:44:29.039Z,33.30
2023-12-15T06:46:59.496Z,31.63
2023-12-15T06:49:32.329Z,37.75
2023-12-15T06:52:03.247Z,35.30
2023-12-15T06:54:34.092Z,38.42
2023-12-15T06:57:07.524Z,33.42
2023-12-15T06:59:38.051Z,41.47
2023-12-15T07:02:08.367Z,34.85
2023-12-15T07:04:39.480Z,37.85
2023-12-15T07:07:09.839Z,30.55
2023-12-15T07:09:40.276Z,35.97
2023-12-15T07:12:15.602Z,38.22
2023-12-15T07:14:45.972Z,35.70
2023-12-15T07:17:16.332Z,38.03
2023-12-15T07:19:46.784Z,31.98
2023-12-15T07:22:19.503Z,32.58
2023-12-15T07:24:51.178Z,43.20
2023-12-15T07:27:24.217Z,36.28
2023-12-15T07:29:54.573Z,55.10
2023-12-15T07:32:24.965Z,57.20
2023-12-15T07:34:55.404Z,56.20
2023-12-15T07:37:25.734Z,52.88
2023-12-15T07:39:56.104Z,49.83
2023-12-15T07:42:30.196Z,43.20
2023-12-15T07:45:00.523Z,39.30
2023-12-15T07:47:31.135Z,37.30
2023-12-15T07:50:01.924Z,36.25
2023-12-15T07:52:32.329Z,35.85
2023-12-15T07:55:02.710Z,40.22
2023-12-15T07:57:37.375Z,38.92
2023-12-15T08:00:14.101Z,40.58
2023-12-15T08:02:46.061Z,36.20
2023-12-15T08:05:16.575Z,35.20
2023-12-15T08:07:46.961Z,35.53
2023-12-15T08:10:17.337Z,38.40
2023-12-15T08:12:50.373Z,41.55
2023-12-15T08:15:20.753Z,39.60
2023-12-15T08:17:51.331Z,37.08
2023-12-15T08:20:23.132Z,40.75
2023-12-15T08:22:53.588Z,37.35
2023-12-15T08:25:23.894Z,34.25
2023-12-15T08:27:57.243Z,33.60
2023-12-15T08:30:27.639Z,35.40
2023-12-15T08:32:59.653Z,39.95
2023-12-15T08:35:30.136Z,32.85
2023-12-15T08:38:00.785Z,32.70
2023-12-15T08:40:31.889Z,34.00
2023-12-15T08:43:04.939Z,27.55
2023-12-15T08:45:35.327Z,36.13
2023-12-15T08:48:05.913Z,31.33
2023-12-15T08:50:36.398Z,33.10
2023-12-15T08:53:09.110Z,34.03
2023-12-15T08:55:39.416Z,33.95
2023-12-15T08:58:12.396Z,32.50
2023-12-15T09:00:44.058Z,36.75
2023-12-15T09:03:15.489Z,38.75
2023-12-15T09:06:07.903Z,41.33
2023-12-15T09:08:36.402Z,52.28
2023-12-15T09:11:07.324Z,37.55
2023-12-15T09:13:40.433Z,40.17
2023-12-15T09:16:12.134Z,39.42
2023-12-15T09:18:42.554Z,38.15
2023-12-15T09:21:12.926Z,30.13
2023-12-15T09:23:43.301Z,31.05
2023-12-15T09:26:14.074Z,34.80
2023-12-15T09:28:47.275Z,31.85
2023-12-15T09:31:17.591Z,35.50
2023-12-15T09:33:48.604Z,30.63
2023-12-15T09:36:19.028Z,30.65
2023-12-15T09:38:49.344Z,33.78
2023-12-15T09:41:19.930Z,28.02
2023-12-15T09:43:53.617Z,33.47
2023-12-15T09:46:25.352Z,32.78
2023-12-15T09:48:56.470Z,24.90
2023-12-15T09:51:31.458Z,26.70
2023-12-15T09:54:01.737Z,29.50
2023-12-15T09:56:32.305Z,22.50
2023-12-15T09:59:05.273Z,24.85
2023-12-15T10:01:36.333Z,30.48
2023-12-15T10:04:06.754Z,33.17
2023-12-15T10:06:38.495Z,27.88
2023-12-15T10:09:14.802Z,27.35
2023-12-15T10:11:48.309Z,29.88
2023-12-15T10:14:22.509Z,26.98
2023-12-15T10:16:52.848Z,24.55
2023-12-15T10:19:23.342Z,26.58
2023-12-15T10:21:53.799Z,23.40
2023-12-15T10:24:26.113Z,28.10
2023-12-15T10:26:56.462Z,26.60
2023-12-15T10:29:29.711Z,27.50
2023-12-15T10:32:00.339Z,27.00
2023-12-15T10:34:33.686Z,28.27
2023-12-15T10:37:05.176Z,29.95
2023-12-15T10:39:35.666Z,26.58
2023-12-15T10:42:07.030Z,27.08
2023-12-15T10:44:41.439Z,31.67
2023-12-15T10:47:12.661Z,26.42
2023-12-15T10:49:52.576Z,29.27
2023-12-15T10:52:26.349Z,24.10
2023-12-15T10:54:58.249Z,22.83
2023-12-15T10:57:28.554Z,22.40
2023-12-15T11:00:01.992Z,19.58
2023-12-15T11:02:34.268Z,20.02
2023-12-15T11:05:05.589Z,23.30
2023-12-15T11:07:36.518Z,20.00
2023-12-15T11:10:10.476Z,21.83
2023-12-15T11:12:42.357Z,22.70
2023-12-15T11:15:17.700Z,23.70
2023-12-15T11:17:51.462Z,22.70
2023-12-15T11:20:44.104Z,23.95
2023-12-15T11:23:16.201Z,19.85
2023-12-15T11:26:01.416Z,22.48
2023-12-15T11:28:35.336Z,20.48
2023-12-15T11:31:25.521Z,20.33
2023-12-15T11:33:55.956Z,20.20
2023-12-15T11:36:26.340Z,19.05
2023-12-15T11:38:57.043Z,22.33
2023-12-15T11:41:27.511Z,17.08
2023-12-15T11:43:59.759Z,19.48
2023-12-15T11:46:32.768Z,17.23
2023-12-15T11:49:03.108Z,21.58
2023-12-15T11:51:34.608Z,16.27
2023-12-15T11:54:06.288Z,19.50
2023-12-15T11:56:36.788Z,20.42
2023-12-15T11:59:07.232Z,17.13
2023-12-15T12:01:42.740Z,17.00
2023-12-15T12:04:21.800Z,22.02
2023-12-15T12:06:52.260Z,20.65
2023-12-15T12:09:23.824Z,19.88
2023-12-15T12:11:57.112Z,21.58
2023-12-15T12:14:33.441Z,24.88
2023-12-15T12:17:06.662Z,22.58
2023-12-15T12:19:43.798Z,23.48
2023-12-15T12:22:15.384Z,21.13
2023-12-15T12:24:45.928Z,21.45
2023-12-15T12:27:16.246Z,22.10
2023-12-15T12:29:48.086Z,21.58
2023-12-15T12:32:22.902Z,24.45
2023-12-15T12:34:53.761Z,22.40
2023-12-15T12:37:24.279Z,23.73
2023-12-15T12:39:54.631Z,23.65
2023-12-15T12:42:25.943Z,21.88
2023-12-15T12:44:56.400Z,20.95
2023-12-15T12:47:30.170Z,23.58
2023-12-15T12:50:01.140Z,23.73
2023-12-15T12:52:35.213Z,24.88
2023-12-15T12:55:08.125Z,21.85
2023-12-15T12:57:38.601Z,21.10
2023-12-15T13:00:10.964Z,19.75
2023-12-15T13:02:44.121Z,20.38
2023-12-15T13:05:15.249Z,20.98
2023-12-15T13:07:45.526Z,20.73
2023-12-15T13:10:18.463Z,22.60
2023-12-15T13:12:56.791Z,20.85
2023-12-15T13:15:27.665Z,20.15
2023-12-15T13:20:37.949Z,18.50
2023-12-15T13:23:10.764Z,21.20
2023-12-15T13:25:41.436Z,19.77
2023-12-15T13:28:11.840Z,20.02
2023-12-15T13:30:44.800Z,16.38
2023-12-15T13:33:18.384Z,17.85
2023-12-15T13:35:50.063Z,17.35
2023-12-15T13:38:20.563Z,17.35
2023-12-15T13:40:51.245Z,18.23
2023-12-15T13:43:21.733Z,19.67
2023-12-15T13:45:57.874Z,17.95
2023-12-15T13:48:35.619Z,17.95
2023-12-15T13:51:06.270Z,16.52
2023-12-15T13:53:36.878Z,21.23
2023-12-15T13:56:08.106Z,15.65
2023-12-15T13:58:38.524Z,16.25
2023-12-15T14:01:11.734Z,18.65
2023-12-15T14:06:18.394Z,19.38
2023-12-15T14:08:49.090Z,16.92
2023-12-15T14:11:19.737Z,17.25
2023-12-15T14:13:50.343Z,19.25
2023-12-15T14:16:28.080Z,18.75
2023-12-15T14:19:09.837Z,18.20
2023-12-15T14:21:40.464Z,17.67
2023-12-15T14:24:12.561Z,20.27
2023-12-15T14:26:43.802Z,17.42
2023-12-15T14:29:14.778Z,17.42
2023-12-15T14:31:45.444Z,21.73
2023-12-15T14:34:21.605Z,24.63
2023-12-15T14:39:22.708Z,17.88
2023-12-15T14:41:55.279Z,22.75
2023-12-15T14:44:26.481Z,20.30
2023-12-15T14:46:57.237Z,17.15
2023-12-15T14:49:30.836Z,21.05
2023-12-15T14:52:01.398Z,20.80
2023-12-15T14:54:31.867Z,16.15
2023-12-15T14:57:02.326Z,19.40
2023-12-15T14:59:32.807Z,17.95
2023-12-15T15:02:03.616Z,19.33
2023-12-15T15:04:36.741Z,17.45
2023-12-15T15:07:07.773Z,20.38
2023-12-15T15:09:38.222Z,17.88
2023-12-15T15:12:09.274Z,18.40
2023-12-15T15:14:40.946Z,18.58
2023-12-15T15:17:11.463Z,17.23
2023-12-15T15:19:44.570Z,17.60
2023-12-15T15:22:16.867Z,16.80
2023-12-15T15:24:47.360Z,19.13
2023-12-15T15:27:17.793Z,14.95
2023-12-15T15:29:48.304Z,18.42
2023-12-15T15:32:19.894Z,17.52
2023-12-15T15:34:59.422Z,20.58
2023-12-15T15:37:36.587Z,20.07
2023-12-15T15:40:12.600Z,16.75
2023-12-15T15:42:45.688Z,20.92
2023-12-15T15:45:24.953Z,18.98
2023-12-15T15:47:58.121Z,16.50
2023-12-15T15:50:32.327Z,16.55
2023-12-15T15:53:07.843Z,17.45
2023-12-15T15:55:38.448Z,18.85
2023-12-15T15:58:09.214Z,19.02
2023-12-15T16:00:39.860Z,20.05
2023-12-15T16:03:10.496Z,21.38
2023-12-15T16:05:43.821Z,19.80
2023-12-15T16:08:14.313Z,22.20
2023-12-15T16:10:46.453Z,24.23
2023-12-15T16:13:17.138Z,22.75
2023-12-15T16:15:47.773Z,19.63
2023-12-15T16:18:19.600Z,24.15
2023-12-15T16:20:53.413Z,22.02
2023-12-15T16:23:24.523Z,21.75
2023-12-15T16:25:55.350Z,26.58
2023-12-15T16:28:25.786Z,26.48
2023-12-15T16:30:56.321Z,26.48
2023-12-15T16:33:27.133Z,23.90
2023-12-15T16:36:00.569Z,27.17
2023-12-15T16:38:31.047Z,25.55
2023-12-15T16:41:01.509Z,26.98
2023-12-15T16:43:33.030Z,24.42
2023-12-15T16:46:04.506Z,27.48
2023-12-15T16:48:35.010Z,30.02
2023-12-15T16:51:10.940Z,26.80
2023-12-15T16:53:41.909Z,28.30
2023-12-15T16:56:13.346Z,25.85
2023-12-15T16:58:43.771Z,27.15
2023-12-15T17:01:14.515Z,21.42
2023-12-15T17:03:46.774Z,23.77
2023-12-15T17:06:20.008Z,28.95
2023-12-15T17:08:50.522Z,26.15
2023-12-15T17:11:21.371Z,28.60
2023-12-15T17:13:51.786Z,21.35
2023-12-15T17:16:22.281Z,22.13
2023-12-15T17:18:52.821Z,23.63
2023-12-15T17:21:26.718Z,28.02
2023-12-15T17:23:57.324Z,23.95
2023-12-15T17:26:27.770Z,24.88
2023-12-15T17:28:58.333Z,25.50
2023-12-15T17:31:28.808Z,22.92
2023-12-15T17:33:59.421Z,26.20
2023-12-15T17:36:32.573Z,21.25
2023-12-15T17:39:03.120Z,21.98
2023-12-15T17:41:33.609Z,21.38
2023-12-15T17:44:04.531Z,25.50
2023-12-15T17:46:35.010Z,20.85
2023-12-15T17:49:07.057Z,20.48
2023-12-15T17:51:41.763Z,21.42
2023-12-15T17:54:14.705Z,19.10
2023-12-15T17:56:47.292Z,21.30
2023-12-15T17:59:18.025Z,25.05
2023-12-15T18:01:48.652Z,27.77
2023-12-15T18:04:19.355Z,25.77
2023-12-15T18:06:52.501Z,21.75
2023-12-15T18:09:23.016Z,24.70
2023-12-15T18:11:53.591Z,26.40
2023-12-15T18:14:24.103Z,24.05
2023-12-15T18:16:54.558Z,22.60
2023-12-15T18:19:25.113Z,22.10
2023-12-15T18:21:58.492Z,24.60
2023-12-15T18:24:29.331Z,22.75
2023-12-15T18:27:03.613Z,23.42
2023-12-15T18:29:35.877Z,22.55
2023-12-15T18:32:07.066Z,24.50
2023-12-15T18:34:37.924Z,24.35
2023-12-15T18:37:13.957Z,31.90
2023-12-15T18:39:42.201Z,33.33
2023-12-15T18:42:13.368Z,41.63
2023-12-15T18:44:45.048Z,35.92
2023-12-15T18:47:17.386Z,26.20
2023-12-15T18:49:51.777Z,27.00
2023-12-15T18:52:26.381Z,27.25
2023-12-15T18:55:00.482Z,25.08
2023-12-15T18:57:46.628Z,26.92
2023-12-15T19:00:23.456Z,27.40
2023-12-15T19:02:57.259Z,23.23
2023-12-15T19:05:33.087Z,25.33
2023-12-15T19:08:06.665Z,27.38
2023-12-15T19:10:37.185Z,26.27
2023-12-15T19:13:07.763Z,28.33
2023-12-15T19:15:38.500Z,28.08
2023-12-15T19:18:12.448Z,26.83
2023-12-15T19:20:52.115Z,28.45
2023-12-15T19:23:25.711Z,23.58
2023-12-15T19:25:59.475Z,33.15
2023-12-15T19:28:32.346Z,26.88
2023-12-15T19:31:03.353Z,27.60
2023-12-15T19:33:34.277Z,28.95
2023-12-15T19:36:05.758Z,27.13
2023-12-15T19:38:40.881Z,26.27
2023-12-15T19:41:23.272Z,28.52
2023-12-15T19:43:55.478Z,25.95
2023-12-15T19:46:28.928Z,26.30
2023-12-15T19:48:59.694Z,30.40
2023-12-15T19:51:30.311Z,23.85
2023-12-15T19:54:12.492Z,27.33
2023-12-15T19:56:49.643Z,32.35
2023-12-15T19:59:20.716Z,30.30
2023-12-15T20:01:51.346Z,25.08
2023-12-15T20:04:21.996Z,24.90
2023-12-15T20:06:53.809Z,28.67
2023-12-15T20:09:27.861Z,30.75
2023-12-15T20:11:59.072Z,28.60
2023-12-15T20:14:29.724Z,33.50
2023-12-15T20:17:01.509Z,29.75
2023-12-15T20:19:32.097Z,25.70
2023-12-15T20:22:02.884Z,29.35
2023-12-15T20:24:36.146Z,25.33
2023-12-15T20:27:18.945Z,30.88
2023-12-15T20:29:49.645Z,33.33
2023-12-15T20:32:20.285Z,27.08
2023-12-15T20:34:51.637Z,26.95
2023-12-15T20:37:22.487Z,28.15
2023-12-15T20:39:55.834Z,25.77
2023-12-15T20:42:29.880Z,27.88
2023-12-15T20:45:00.350Z,32.88
2023-12-15T20:47:31.960Z,25.48
2023-12-15T20:50:05.034Z,28.23
2023-12-15T20:52:35.744Z,24.33
2023-12-15T20:55:12.687Z,24.75
2023-12-15T20:57:45.500Z,29.98
2023-12-15T21:00:17.402Z,28.75
2023-12-15T21:02:47.970Z,22.67
2023-12-15T21:05:19.391Z,24.30
2023-12-15T21:07:50.519Z,28.63
2023-12-15T21:10:24.066Z,23.52
2023-12-15T21:12:54.675Z,24.13
2023-12-15T21:15:25.211Z,23.15
2023-12-15T21:17:56.014Z,29.00
2023-12-15T21:20:26.633Z,27.40
2023-12-15T21:22:57.276Z,27.05
2023-12-15T21:25:34.128Z,27.33
2023-12-15T21:28:05.367Z,26.73
2023-12-15T21:30:36.469Z,23.35
2023-12-15T21:33:08.790Z,24.92
2023-12-15T21:35:46.966Z,22.90
2023-12-15T21:38:23.141Z,26.35
2023-12-15T21:40:56.665Z,25.98
2023-12-15T21:43:29.441Z,24.90
2023-12-15T21:46:02.033Z,24.75
2023-12-15T21:48:44.955Z,27.13
2023-12-15T21:51:30.830Z,26.05
2023-12-15T21:54:02.768Z,24.95
2023-12-15T21:56:36.376Z,23.15
2023-12-15T21:59:07.428Z,25.30
2023-12-15T22:01:44.131Z,27.73
2023-12-15T22:04:15.262Z,23.02
2023-12-15T22:06:45.880Z,28.23
2023-12-15T22:09:16.700Z,23.40
2023-12-15T22:11:49.808Z,24.63
2023-12-15T22:14:26.437Z,26.42
2023-12-15T22:17:02.613Z,26.45
2023-12-15T22:19:33.137Z,28.15
2023-12-15T22:22:04.827Z,22.60
2023-12-15T22:24:35.451Z,24.10
2023-12-15T22:27:09.176Z,23.92
2023-12-15T22:29:42.272Z,22.67
2023-12-15T22:32:12.722Z,22.52
2023-12-15T22:34:40.669Z,21.85
2023-12-15T22:37:11.250Z,30.13
2023-12-15T22:39:41.772Z,24.52
2023-12-15T22:42:15.355Z,21.98
2023-12-15T22:44:46.338Z,26.48
2023-12-15T22:47:17.868Z,27.02
2023-12-15T22:49:48.778Z,30.08
2023-12-15T22:52:19.348Z,25.70
2023-12-15T22:54:51.440Z,24.85
2023-12-15T22:57:24.760Z,23.90
2023-12-15T22:59:55.321Z,24.55
2023-12-15T23:02:26.106Z,25.33
2023-12-15T23:04:56.695Z,24.40
2023-12-15T23:07:27.269Z,28.90
2023-12-15T23:09:57.825Z,25.80
2023-12-15T23:12:31.127Z,23.25
2023-12-15T23:15:07.431Z,24.58
2023-12-15T23:17:46.497Z,21.27
2023-12-15T23:20:18.183Z,28.75
2023-12-15T23:22:49.163Z,23.70
2023-12-15T23:25:20.227Z,26.77
2023-12-15T23:27:53.384Z,25.23
2023-12-15T23:30:25.131Z,25.67
2023-12-15T23:32:55.813Z,26.33
2023-12-15T23:35:26.268Z,24.73
2023-12-15T23:37:56.696Z,24.70
2023-12-15T23:40:27.230Z,28.00
2023-12-15T23:43:00.463Z,24.40
2023-12-15T23:45:31.070Z,31.52
2023-12-15T23:48:01.651Z,32.22
2023-12-15T23:50:32.170Z,26.50
2023-12-15T23:53:02.641Z,26.50
2023-12-15T23:55:33.604Z,27.90
2023-12-15T23:58:07.280Z,29.45
